Time;durP1;ratioP1;P1;durP2;ratioP2;P2;SDS_P1;SDS_P2;PMS_P1;PMS_P2;Temp;Humidity;BMP_temperature;BMP_pressure;BME280_temperature;BME280_humidity;BME280_pressure;Samples;Min_cycle;Max_cycle;Signal;HPM_P1;HPM_P2
2023/08/21 00:02:21;;;;;;;11.10;4.30;;;;;;;19.20;100.00;101604.44;6121659;28;20274;-66
2023/08/21 00:05:17;;;;;;;7.40;4.07;;;;;;;18.93;100.00;101587.00;6120866;28;20085;-67
2023/08/21 00:08:12;;;;;;;5.47;3.93;;;;;;;18.90;100.00;101598.94;6112512;28;20671;-67
2023/08/21 00:11:07;;;;;;;9.67;4.40;;;;;;;18.81;100.00;101605.38;6124867;28;20439;-67
2023/08/21 00:14:03;;;;;;;6.35;4.10;;;;;;;18.65;100.00;101589.34;6120712;28;20378;-66
2023/08/21 00:16:58;;;;;;;5.65;4.25;;;;;;;18.59;100.00;101595.44;6126246;28;20025;-67
2023/08/21 00:19:53;;;;;;;7.97;4.37;;;;;;;18.67;100.00;101595.38;6126135;28;20436;-66
2023/08/21 00:22:49;;;;;;;7.10;4.03;;;;;;;18.88;100.00;101584.84;6125286;28;20036;-65
2023/08/21 00:25:47;;;;;;;10.57;4.93;;;;;;;19.16;100.00;101593.19;6125209;28;20072;-65
2023/08/21 00:28:43;;;;;;;8.75;4.32;;;;;;;19.08;100.00;101587.88;6125862;28;20032;-66
2023/08/21 00:31:38;;;;;;;6.97;4.03;;;;;;;19.16;100.00;101603.13;6125851;28;20033;-67
2023/08/21 00:34:33;;;;;;;9.33;4.13;;;;;;;19.02;100.00;101583.25;6124688;28;20047;-67
2023/08/21 00:37:28;;;;;;;8.80;4.70;;;;;;;18.74;100.00;101582.94;6127471;28;20060;-66
2023/08/21 00:40:24;;;;;;;8.07;4.20;;;;;;;18.56;100.00;101576.16;6125389;28;20097;-66
2023/08/21 00:43:20;;;;;;;7.40;4.20;;;;;;;18.41;100.00;101571.50;6123528;28;20036;-67
2023/08/21 00:46:15;;;;;;;9.50;3.95;;;;;;;18.46;100.00;101584.38;6134718;28;20328;-65
2023/08/21 00:49:11;;;;;;;6.15;4.07;;;;;;;18.33;100.00;101562.63;6127549;28;20468;-66
2023/08/21 00:52:12;;;;;;;8.30;4.30;;;;;;;18.21;100.00;101564.03;6125641;28;20035;-67
2023/08/21 00:55:08;;;;;;;7.57;4.03;;;;;;;18.05;100.00;101569.47;6123284;28;20063;-66
2023/08/21 00:58:04;;;;;;;6.82;4.28;;;;;;;17.99;100.00;101556.75;6125083;28;20032;-65
2023/08/21 01:00:59;;;;;;;8.77;4.40;;;;;;;17.84;100.00;101562.00;6134078;28;20043;-66
2023/08/21 01:03:55;;;;;;;8.82;4.82;;;;;;;17.84;100.00;101578.09;6126838;28;20039;-66
2023/08/21 01:06:50;;;;;;;8.10;4.53;;;;;;;17.80;100.00;101576.78;6123998;28;20442;-66
2023/08/21 01:09:51;;;;;;;8.98;4.97;;;;;;;18.00;100.00;101580.72;6124862;28;20028;-65
2023/08/21 01:13:19;;;;;;;7.75;4.63;;;;;;;17.87;100.00;101569.72;6124741;28;20036;-66
2023/08/21 01:16:14;;;;;;;6.53;4.60;;;;;;;17.77;100.00;101569.88;6095679;28;20044;-66
2023/08/21 01:19:18;;;;;;;7.22;4.40;;;;;;;17.95;100.00;101568.84;6122849;28;20178;-66
2023/08/21 01:22:14;;;;;;;7.32;5.10;;;;;;;17.83;100.00;101569.19;6123743;28;20111;-65
2023/08/21 01:25:09;;;;;;;7.68;5.10;;;;;;;17.72;100.00;101574.94;6124092;28;20028;-66
2023/08/21 01:28:05;;;;;;;7.72;4.60;;;;;;;17.92;100.00;101569.19;6123291;28;20055;-66
2023/08/21 01:31:08;;;;;;;8.05;4.15;;;;;;;17.70;100.00;101565.38;6123215;28;20457;-65
2023/08/21 01:34:06;;;;;;;8.25;4.90;;;;;;;17.56;100.00;101574.97;6116397;28;20060;-66
2023/08/21 01:37:02;;;;;;;7.63;4.55;;;;;;;17.57;100.00;101586.53;6118407;28;20037;-66
2023/08/21 01:39:58;;;;;;;8.68;4.85;;;;;;;17.50;100.00;101589.00;6124783;28;20036;-66
2023/08/21 01:43:34;;;;;;;7.05;4.35;;;;;;;17.46;100.00;101590.38;6124107;28;20074;-66
2023/08/21 01:46:29;;;;;;;8.45;4.80;;;;;;;17.32;100.00;101568.75;6110643;28;20430;-66
2023/08/21 01:49:25;;;;;;;9.17;4.80;;;;;;;17.35;100.00;101571.94;6134498;28;20094;-66
2023/08/21 01:52:20;;;;;;;7.68;4.57;;;;;;;17.23;100.00;101584.00;6123949;28;20020;-66
2023/08/21 01:55:15;;;;;;;6.23;4.17;;;;;;;17.07;100.00;101568.75;6127826;28;20044;-66
2023/08/21 01:58:11;;;;;;;8.13;4.25;;;;;;;17.06;100.00;101563.59;6123841;28;20064;-66
2023/08/21 02:01:06;;;;;;;8.97;4.53;;;;;;;17.11;100.00;101580.00;6124190;28;20029;-65
2023/08/21 02:04:01;;;;;;;8.37;4.83;;;;;;;16.93;100.00;101544.50;6122924;28;20036;-66
2023/08/21 02:06:57;;;;;;;9.47;4.80;;;;;;;16.95;100.00;101558.56;6123152;28;20039;-67
2023/08/21 02:09:52;;;;;;;8.33;4.80;;;;;;;17.03;100.00;101577.31;6123616;28;20025;-65
2023/08/21 02:12:48;;;;;;;8.37;4.93;;;;;;;17.02;100.00;101556.88;6123521;28;20040;-66
2023/08/21 02:15:44;;;;;;;10.48;5.53;;;;;;;17.29;100.00;101575.28;6123113;28;20059;-66
2023/08/21 02:18:39;;;;;;;8.45;5.10;;;;;;;17.06;100.00;101579.66;6123342;28;20056;-68
2023/08/21 02:21:36;;;;;;;9.73;4.50;;;;;;;16.86;100.00;101575.63;6123248;28;20036;-66
2023/08/21 02:24:31;;;;;;;9.30;5.20;;;;;;;16.88;100.00;101584.31;6129234;28;20032;-66
2023/08/21 02:27:26;;;;;;;10.07;5.10;;;;;;;16.79;100.00;101574.63;6122823;28;20038;-66
2023/08/21 02:30:25;;;;;;;7.07;4.97;;;;;;;16.67;100.00;101572.25;6133839;28;20466;-66
2023/08/21 02:33:20;;;;;;;9.93;4.90;;;;;;;16.72;100.00;101581.63;6123097;28;20043;-66
2023/08/21 02:36:16;;;;;;;10.63;6.03;;;;;;;16.63;100.00;101578.91;6119477;28;20025;-67
2023/08/21 02:39:11;;;;;;;10.85;6.07;;;;;;;16.75;100.00;101578.59;6122443;28;20036;-66
2023/08/21 02:42:06;;;;;;;10.50;5.53;;;;;;;16.85;100.00;101582.00;6122421;28;20045;-66
2023/08/21 02:45:07;;;;;;;9.95;5.57;;;;;;;16.85;100.00;101582.00;6122388;28;20064;-66
2023/08/21 02:48:03;;;;;;;10.65;5.72;;;;;;;16.70;100.00;101565.72;6122643;28;20029;-66
2023/08/21 02:50:59;;;;;;;8.18;5.53;;;;;;;16.63;100.00;101570.06;6122253;28;20033;-67
2023/08/21 02:53:54;;;;;;;11.27;5.53;;;;;;;16.68;100.00;101581.13;6121834;28;20035;-67
2023/08/21 02:56:49;;;;;;;7.47;5.37;;;;;;;16.65;100.00;101555.50;6122370;28;20094;-66
2023/08/21 02:59:45;;;;;;;12.33;6.00;;;;;;;16.81;100.00;101578.81;6122581;28;20626;-66
2023/08/21 03:02:43;;;;;;;10.00;6.50;;;;;;;16.98;100.00;101580.50;6122400;28;20275;-65
2023/08/21 03:05:38;;;;;;;9.48;5.47;;;;;;;16.95;100.00;101571.94;6121467;28;20151;-66
2023/08/21 03:08:33;;;;;;;12.70;5.67;;;;;;;16.94;100.00;101579.16;6122370;28;20044;-66
2023/08/21 03:11:29;;;;;;;10.73;5.63;;;;;;;17.01;100.00;101584.69;6121867;28;20086;-66
2023/08/21 03:14:26;;;;;;;9.27;5.47;;;;;;;17.06;100.00;101593.06;6121614;28;20037;-67
2023/08/21 03:17:22;;;;;;;10.30;5.50;;;;;;;16.95;100.00;101574.63;6123233;28;20383;-66
2023/08/21 03:20:20;;;;;;;11.20;5.63;;;;;;;16.85;100.00;101573.97;6122246;28;20043;-66
2023/08/21 03:23:15;;;;;;;10.27;6.10;;;;;;;16.93;100.00;101582.00;6121525;28;20047;-66
2023/08/21 03:26:10;;;;;;;11.50;5.80;;;;;;;16.73;100.00;101576.09;6139398;28;20036;-67
2023/08/21 03:29:06;;;;;;;11.03;6.17;;;;;;;16.69;100.00;101579.28;6146476;28;20028;-66
2023/08/21 03:32:01;;;;;;;9.97;5.90;;;;;;;16.52;100.00;101565.81;6133337;28;20048;-66
2023/08/21 03:34:56;;;;;;;11.20;6.07;;;;;;;16.58;100.00;101586.59;6120160;28;20025;-66
2023/08/21 03:37:52;;;;;;;10.17;6.13;;;;;;;16.67;100.00;101568.72;6121945;28;20373;-66
2023/08/21 03:40:47;;;;;;;12.32;6.93;;;;;;;16.60;100.00;101573.88;6121583;28;20282;-67
2023/08/21 03:43:42;;;;;;;8.53;5.40;;;;;;;16.46;100.00;101579.03;6121383;28;20044;-66
2023/08/21 03:46:38;;;;;;;12.60;6.23;;;;;;;16.44;100.00;101586.38;6121592;28;20039;-67
2023/08/21 03:49:33;;;;;;;9.50;5.77;;;;;;;16.41;100.00;101579.53;6121440;28;20290;-65
2023/08/21 03:52:28;;;;;;;11.57;6.17;;;;;;;16.41;100.00;101570.66;6121566;28;20064;-66
2023/08/21 03:55:24;;;;;;;11.43;6.63;;;;;;;16.82;100.00;101569.78;6120984;28;20298;-65
2023/08/21 03:58:19;;;;;;;10.57;6.70;;;;;;;16.71;100.00;101579.97;6121750;28;20263;-67
2023/08/21 04:01:15;;;;;;;9.83;6.00;;;;;;;16.93;100.00;101590.03;6121507;28;20029;-66
2023/08/21 04:04:11;;;;;;;12.27;5.97;;;;;;;16.83;100.00;101594.69;6126808;28;20016;-65
2023/08/21 04:07:06;;;;;;;10.43;5.47;;;;;;;16.50;100.00;101575.84;6121366;28;20051;-65
2023/08/21 04:10:01;;;;;;;8.70;5.67;;;;;;;16.45;100.00;101583.53;6121342;28;20262;-66
2023/08/21 04:12:56;;;;;;;10.00;5.67;;;;;;;16.72;100.00;101577.09;6121583;28;20392;-65
2023/08/21 04:15:53;;;;;;;7.47;5.07;;;;;;;16.39;100.00;101581.50;6120691;28;20058;-66
2023/08/21 04:18:49;;;;;;;8.35;5.00;;;;;;;16.16;100.00;101588.44;6121604;28;20075;-67
2023/08/21 04:21:44;;;;;;;10.03;5.37;;;;;;;16.22;100.00;101597.69;6121176;28;20045;-66
2023/08/21 04:24:40;;;;;;;9.27;5.17;;;;;;;16.40;100.00;101598.41;6120175;28;20036;-65
2023/08/21 04:27:36;;;;;;;10.70;5.78;;;;;;;16.36;100.00;101584.50;6121276;28;20113;-66
2023/08/21 04:30:31;;;;;;;11.53;5.50;;;;;;;16.37;100.00;101591.53;6120919;28;20037;-65
2023/08/21 04:33:28;;;;;;;9.40;5.40;;;;;;;16.42;100.00;101593.72;6120225;28;20032;-66
2023/08/21 04:36:23;;;;;;;8.05;5.18;;;;;;;16.52;100.00;101622.03;6121121;28;20036;-66
2023/08/21 04:39:19;;;;;;;10.93;5.63;;;;;;;16.57;100.00;101619.78;6121408;28;20035;-66
2023/08/21 04:42:14;;;;;;;12.93;5.73;;;;;;;16.73;100.00;101605.56;6118632;28;20036;-66
2023/08/21 04:45:09;;;;;;;8.93;4.95;;;;;;;16.87;100.00;101593.38;6111244;28;20031;-66
2023/08/21 04:48:05;;;;;;;9.17;5.13;;;;;;;16.84;100.00;101615.13;6121134;28;20028;-66
2023/08/21 04:51:00;;;;;;;11.80;5.35;;;;;;;16.76;100.00;101607.94;6117030;28;20028;-67
2023/08/21 04:53:55;;;;;;;11.67;4.93;;;;;;;16.85;100.00;101611.47;6119994;28;20036;-65
2023/08/21 04:56:51;;;;;;;7.27;4.67;;;;;;;16.92;100.00;101605.28;6120635;28;20155;-66
2023/08/21 04:59:47;;;;;;;11.87;5.23;;;;;;;16.98;100.00;101609.13;6119901;28;20033;-66
2023/08/21 05:02:42;;;;;;;12.15;4.97;;;;;;;17.12;100.00;101605.81;6123409;28;20090;-67
2023/08/21 05:05:37;;;;;;;10.80;5.00;;;;;;;17.36;100.00;101629.94;6131593;28;20031;-67
2023/08/21 05:08:33;;;;;;;9.25;4.88;;;;;;;17.43;100.00;101617.53;6149554;28;20051;-67
2023/08/21 05:11:28;;;;;;;9.32;5.10;;;;;;;17.55;100.00;101626.97;6120726;28;20043;-67
2023/08/21 05:14:24;;;;;;;10.53;5.03;;;;;;;17.64;100.00;101633.97;6123979;28;20131;-67
2023/08/21 05:17:19;;;;;;;8.20;4.17;;;;;;;17.74;100.00;101629.28;6125075;28;20040;-67
2023/08/21 05:20:14;;;;;;;7.93;4.15;;;;;;;18.00;100.00;101628.19;6121021;28;20033;-65
2023/08/21 05:23:10;;;;;;;8.83;4.63;;;;;;;18.03;100.00;101630.53;6121456;28;20487;-67
2023/08/21 05:26:05;;;;;;;9.30;4.93;;;;;;;18.02;100.00;101628.91;6136494;28;20067;-66
2023/08/21 05:29:00;;;;;;;9.20;4.83;;;;;;;18.02;100.00;101620.84;6145815;28;20070;-66
2023/08/21 05:31:56;;;;;;;9.70;4.73;;;;;;;18.34;100.00;101628.78;6124037;28;20086;-66
2023/08/21 05:34:51;;;;;;;7.47;3.80;;;;;;;19.04;100.00;101621.53;6123644;28;20512;-66
2023/08/21 05:37:46;;;;;;;6.87;4.07;;;;;;;19.59;100.00;101632.06;6124438;28;20020;-66
2023/08/21 05:40:42;;;;;;;7.93;4.53;;;;;;;19.80;100.00;101632.19;6125086;28;20036;-66
2023/08/21 05:43:39;;;;;;;11.13;4.68;;;;;;;20.34;100.00;101643.56;6123325;28;20384;-66
2023/08/21 05:46:34;;;;;;;7.80;3.70;;;;;;;20.62;100.00;101651.81;6124302;28;20379;-66
2023/08/21 05:49:30;;;;;;;5.67;3.40;;;;;;;20.38;100.00;101650.25;6123926;28;20036;-66
2023/08/21 05:52:25;;;;;;;10.13;4.60;;;;;;;19.99;100.00;101655.88;6120678;28;20293;-66
2023/08/21 05:55:21;;;;;;;11.40;4.37;;;;;;;19.90;100.00;101673.13;6123472;28;20383;-67
2023/08/21 05:58:16;;;;;;;7.10;3.97;;;;;;;19.99;100.00;101655.88;6126395;28;20475;-66
2023/08/21 06:01:12;;;;;;;8.90;4.53;;;;;;;19.99;100.00;101666.66;6124649;28;20382;-65
2023/08/21 06:04:07;;;;;;;8.73;4.60;;;;;;;20.50;100.00;101653.28;6133268;28;20048;-66
2023/08/21 06:07:03;;;;;;;9.13;4.60;;;;;;;20.25;100.00;101649.25;6123354;28;20141;-66
2023/08/21 06:09:58;;;;;;;6.55;4.15;;;;;;;20.27;100.00;101668.75;6122775;28;20384;-66
2023/08/21 06:12:53;;;;;;;6.70;4.03;;;;;;;20.94;100.00;101664.84;6123350;28;20043;-66
2023/08/21 06:15:48;;;;;;;9.83;4.20;;;;;;;21.21;100.00;101655.19;6123007;28;20036;-66
2023/08/21 06:18:44;;;;;;;9.17;4.00;;;;;;;21.55;100.00;101659.88;6123408;28;20157;-65
2023/08/21 06:21:39;;;;;;;7.87;4.23;;;;;;;21.31;100.00;101670.03;6121970;28;20282;-65
2023/08/21 06:24:34;;;;;;;7.07;4.00;;;;;;;21.47;100.00;101650.03;6122623;28;20399;-65
2023/08/21 06:27:30;;;;;;;5.70;3.43;;;;;;;22.47;95.87;101664.94;6123554;28;20032;-66
2023/08/21 06:30:26;;;;;;;8.32;3.97;;;;;;;22.50;93.71;101669.09;6122611;28;20028;-67
2023/08/21 06:33:22;;;;;;;7.90;3.60;;;;;;;22.30;94.94;101676.25;6122512;28;20025;-65
2023/08/21 06:36:17;;;;;;;8.70;4.13;;;;;;;22.94;91.56;101665.94;6121750;28;20047;-66
2023/08/21 06:39:12;;;;;;;5.83;3.03;;;;;;;23.16;88.35;101656.63;6122063;28;20047;-65
2023/08/21 06:42:07;;;;;;;8.37;3.27;;;;;;;23.25;86.98;101654.56;6118425;28;20036;-65
2023/08/21 06:45:05;;;;;;;8.67;3.63;;;;;;;23.37;85.62;101658.34;6120809;28;20061;-66
2023/08/21 06:48:01;;;;;;;5.93;3.25;;;;;;;24.19;80.42;101666.91;6121415;28;20037;-66
2023/08/21 06:50:56;;;;;;;7.68;3.00;;;;;;;23.93;81.69;101650.66;6120030;28;20043;-65
2023/08/21 06:53:51;;;;;;;9.57;3.03;;;;;;;23.92;79.17;101662.53;6120052;28;21524;-66
2023/08/21 06:56:47;;;;;;;7.00;3.07;;;;;;;23.57;82.89;101659.22;6120338;28;20035;-65
2023/08/21 06:59:42;;;;;;;4.90;2.77;;;;;;;23.91;81.23;101663.59;6115329;28;20267;-66
2023/08/21 07:02:37;;;;;;;6.00;2.60;;;;;;;23.37;85.82;101667.31;6120826;28;20039;-66
2023/08/21 07:05:33;;;;;;;5.53;3.07;;;;;;;23.31;85.29;101681.69;6122802;28;20056;-65
2023/08/21 07:08:29;;;;;;;6.90;3.00;;;;;;;23.61;82.72;101672.16;6121255;28;20279;-65
2023/08/21 07:11:24;;;;;;;7.03;2.10;;;;;;;23.37;84.08;101682.72;6120227;28;20549;-66
2023/08/21 07:14:19;;;;;;;6.10;2.87;;;;;;;23.62;83.78;101679.22;6115579;28;20098;-66
2023/08/21 07:17:15;;;;;;;6.23;2.57;;;;;;;23.68;83.36;101672.97;6121545;28;20086;-66
2023/08/21 07:20:10;;;;;;;6.85;2.55;;;;;;;24.00;81.93;101673.16;6123047;28;20029;-66
2023/08/21 07:23:06;;;;;;;6.55;2.80;;;;;;;23.86;81.14;101690.50;6116311;28;20031;-66
2023/08/21 07:26:02;;;;;;;6.13;2.63;;;;;;;23.73;81.56;101680.47;6116442;28;20068;-66
2023/08/21 07:28:57;;;;;;;4.88;2.47;;;;;;;23.39;81.34;101688.78;6120691;28;20028;-66
2023/08/21 07:31:52;;;;;;;5.80;2.37;;;;;;;23.25;82.36;101706.84;6114081;28;20032;-65
2023/08/21 07:34:52;;;;;;;4.70;2.10;;;;;;;23.43;81.04;101685.47;6118306;28;20035;-66
2023/08/21 07:37:47;;;;;;;6.72;2.40;;;;;;;23.41;82.81;101698.38;6117507;28;20027;-66
2023/08/21 07:40:42;;;;;;;4.80;2.00;;;;;;;23.58;80.18;101683.41;6116455;28;20036;-66
2023/08/21 07:43:42;;;;;;;4.33;1.70;;;;;;;23.88;77.46;101682.97;6118778;28;20070;-66
2023/08/21 07:46:37;;;;;;;4.70;1.67;;;;;;;24.13;73.93;101692.16;6117396;28;20024;-66
2023/08/21 07:49:33;;;;;;;6.13;2.07;;;;;;;23.75;71.48;101683.00;6112309;28;20051;-66
2023/08/21 07:52:28;;;;;;;5.25;1.52;;;;;;;23.37;73.09;101686.28;6119971;28;20029;-65
2023/08/21 07:55:23;;;;;;;5.80;1.80;;;;;;;23.41;71.33;101700.25;6112819;28;20471;-65
2023/08/21 07:58:19;;;;;;;7.15;1.73;;;;;;;22.98;73.14;101686.16;6119758;28;20036;-66
2023/08/21 08:01:14;;;;;;;4.70;1.52;;;;;;;22.93;74.35;101700.31;6118094;28;20040;-66
2023/08/21 08:04:10;;;;;;;5.37;2.13;;;;;;;23.62;71.07;101692.75;6125463;28;20029;-65
2023/08/21 08:07:06;;;;;;;7.45;1.98;;;;;;;24.06;67.73;101708.41;6117242;28;20388;-66
2023/08/21 08:10:01;;;;;;;3.33;1.30;;;;;;;24.44;66.65;101705.84;6119916;28;20025;-66
2023/08/21 08:12:56;;;;;;;4.70;1.30;;;;;;;24.21;66.09;101695.50;6120041;28;20028;-67
2023/08/21 08:15:51;;;;;;;3.70;1.40;;;;;;;24.03;66.20;101716.94;6119323;28;20033;-67
2023/08/21 08:18:47;;;;;;;3.57;1.90;;;;;;;23.89;67.75;101711.75;6120372;28;20024;-66
2023/08/21 08:21:43;;;;;;;6.15;1.95;;;;;;;24.37;66.92;101709.63;6124638;28;20464;-66
2023/08/21 08:24:38;;;;;;;3.05;1.38;;;;;;;24.31;66.69;101719.44;6119196;28;20056;-66
2023/08/21 08:27:34;;;;;;;4.05;1.42;;;;;;;24.11;68.76;101724.06;6122114;28;20307;-66
2023/08/21 08:30:29;;;;;;;2.88;1.30;;;;;;;23.96;69.43;101707.16;6119781;28;20029;-66
2023/08/21 08:33:25;;;;;;;6.00;1.67;;;;;;;24.19;68.51;101707.56;6119241;28;20055;-66
2023/08/21 08:36:20;;;;;;;4.25;1.75;;;;;;;24.87;66.56;101705.34;6120909;28;20278;-66
2023/08/21 08:39:15;;;;;;;3.77;1.70;;;;;;;24.96;63.77;101714.88;6131088;28;20413;-65
2023/08/21 08:42:11;;;;;;;5.03;1.63;;;;;;;25.27;64.17;101706.78;6129879;28;20055;-66
2023/08/21 08:45:07;;;;;;;6.03;1.80;;;;;;;25.53;61.30;101709.34;6122104;28;20040;-66
2023/08/21 08:48:04;;;;;;;4.60;1.83;;;;;;;24.89;63.46;101720.34;6129038;28;20031;-66
2023/08/21 08:50:59;;;;;;;5.85;1.58;;;;;;;24.80;62.83;101706.19;6123515;28;20043;-66
2023/08/21 08:53:55;;;;;;;5.50;1.73;;;;;;;24.89;62.06;101693.22;6122168;28;20044;-67
2023/08/21 08:56:51;;;;;;;5.18;1.60;;;;;;;24.99;60.18;101704.44;6123977;28;20513;-66
2023/08/21 08:59:46;;;;;;;4.38;1.63;;;;;;;25.04;60.02;101684.78;6127240;28;20143;-67
2023/08/21 09:02:41;;;;;;;4.90;1.80;;;;;;;25.39;60.03;101692.28;6124102;28;20032;-66
2023/08/21 09:05:37;;;;;;;7.93;1.90;;;;;;;25.76;54.45;101696.03;6124165;28;20028;-67
2023/08/21 09:08:32;;;;;;;6.00;1.50;;;;;;;26.12;58.21;101694.44;6123555;28;20057;-66
2023/08/21 09:11:27;;;;;;;6.27;1.73;;;;;;;26.72;55.79;101693.56;6124281;28;20303;-66
2023/08/21 09:14:27;;;;;;;5.07;1.50;;;;;;;26.39;51.46;101691.22;6124328;28;20285;-66
2023/08/21 09:17:23;;;;;;;6.38;1.52;;;;;;;26.00;53.01;101678.03;6123172;28;20392;-67
2023/08/21 09:20:18;;;;;;;8.73;1.90;;;;;;;26.02;53.16;101674.03;6123726;28;20036;-66
2023/08/21 09:23:17;;;;;;;5.17;1.60;;;;;;;26.50;53.44;101692.38;6124139;28;20212;-66
2023/08/21 09:26:22;;;;;;;4.97;1.60;;;;;;;26.75;50.97;101676.78;6123381;28;20064;-66
2023/08/21 09:29:17;;;;;;;5.28;1.50;;;;;;;27.00;49.66;101680.25;6124201;28;20582;-66
2023/08/21 09:32:13;;;;;;;3.83;1.10;;;;;;;26.83;46.48;101681.94;6124076;28;20047;-67
2023/08/21 09:35:13;;;;;;;5.37;1.40;;;;;;;27.03;50.12;101681.69;6123748;28;20051;-67
2023/08/21 09:38:09;;;;;;;3.75;1.63;;;;;;;26.94;50.53;101674.88;6123999;28;20108;-66
2023/08/21 09:41:04;;;;;;;5.68;1.73;;;;;;;27.19;49.95;101665.53;6120790;28;20032;-67
2023/08/21 09:44:00;;;;;;;5.50;1.10;;;;;;;27.31;49.63;101668.28;6122188;28;20502;-67
2023/08/21 09:46:55;;;;;;;4.60;1.60;;;;;;;27.59;48.30;101682.09;6122440;28;20040;-66
2023/08/21 09:49:51;;;;;;;3.50;1.20;;;;;;;27.50;48.47;101667.19;6123796;28;20365;-66
2023/08/21 09:52:46;;;;;;;3.35;1.42;;;;;;;27.58;50.62;101663.28;6123214;28;20032;-66
2023/08/21 09:55:42;;;;;;;5.43;1.80;;;;;;;27.56;49.87;101665.38;6122151;28;20548;-67
2023/08/21 09:58:37;;;;;;;4.63;1.50;;;;;;;28.16;50.36;101669.59;6121793;28;20306;-66
2023/08/21 10:01:34;;;;;;;6.35;1.67;;;;;;;27.61;49.08;101665.53;6122698;28;20028;-67
2023/08/21 10:04:30;;;;;;;5.63;1.65;;;;;;;27.63;48.13;101671.56;6122368;28;20036;-67
2023/08/21 10:07:26;;;;;;;4.53;1.63;;;;;;;26.66;50.87;101683.63;6123116;28;20039;-66
2023/08/21 10:10:22;;;;;;;4.57;1.40;;;;;;;26.39;52.92;101679.53;6122783;28;20032;-67
2023/08/21 10:13:18;;;;;;;5.43;1.80;;;;;;;26.65;51.65;101679.22;6122598;28;20094;-67
2023/08/21 10:16:13;;;;;;;5.65;1.65;;;;;;;26.65;50.97;101660.16;6122561;28;20484;-66
2023/08/21 10:19:09;;;;;;;4.70;1.60;;;;;;;26.76;50.02;101674.91;6126127;28;20032;-66
2023/08/21 10:22:04;;;;;;;4.30;1.23;;;;;;;26.64;51.07;101677.53;6114538;28;20357;-67
2023/08/21 10:25:00;;;;;;;5.90;1.50;;;;;;;26.75;51.17;101679.50;6122347;28;20407;-67
2023/08/21 10:27:56;;;;;;;4.93;1.43;;;;;;;26.96;50.22;101664.63;6121662;28;20654;-67
2023/08/21 10:30:52;;;;;;;4.65;1.73;;;;;;;27.27;49.86;101660.78;6122132;28;20033;-66
2023/08/21 10:33:47;;;;;;;7.23;1.47;;;;;;;27.56;49.26;101660.78;6121634;28;20028;-68
2023/08/21 10:36:42;;;;;;;3.85;1.50;;;;;;;27.61;47.03;101673.72;6122424;28;20270;-67
2023/08/21 10:39:39;;;;;;;4.82;1.30;;;;;;;27.15;48.38;101669.75;6122764;28;20063;-66
2023/08/21 10:42:39;;;;;;;3.72;1.27;;;;;;;27.42;48.66;101669.41;6122747;28;20044;-66
2023/08/21 10:45:53;;;;;;;5.00;1.20;;;;;;;28.11;46.41;101679.56;6121969;28;20127;-67
2023/08/21 10:48:48;;;;;;;4.28;1.65;;;;;;;28.22;45.99;101687.75;6122264;28;20035;-67
2023/08/21 10:51:44;;;;;;;2.30;1.20;;;;;;;28.00;46.04;101681.19;6122335;28;20033;-66
2023/08/21 10:54:50;;;;;;;4.10;1.57;;;;;;;28.01;47.11;101680.13;6122197;28;20090;-67
2023/08/21 10:57:49;;;;;;;6.70;1.50;;;;;;;28.17;47.59;101681.34;6121146;28;20286;-67
2023/08/21 11:00:44;;;;;;;4.50;1.40;;;;;;;28.48;47.75;101670.03;6122414;28;20451;-67
2023/08/21 11:03:40;;;;;;;6.10;1.58;;;;;;;28.44;47.03;101676.19;6120709;28;20039;-66
2023/08/21 11:06:36;;;;;;;5.72;1.67;;;;;;;28.84;47.12;101671.59;6133709;28;20491;-67
2023/08/21 11:09:31;;;;;;;3.72;1.50;;;;;;;28.69;46.33;101666.69;6122560;28;20055;-66
2023/08/21 11:12:28;;;;;;;4.80;1.47;;;;;;;28.23;47.59;101655.84;6122156;28;20136;-67
2023/08/21 11:15:25;;;;;;;4.88;1.48;;;;;;;28.71;48.17;101669.16;6121542;28;20028;-67
2023/08/21 11:18:25;;;;;;;5.22;1.63;;;;;;;28.19;47.25;101682.75;6123261;28;20035;-66
2023/08/21 11:21:23;;;;;;;6.32;1.77;;;;;;;27.13;49.54;101655.56;6134822;28;20127;-66
2023/08/21 11:24:18;;;;;;;4.00;1.45;;;;;;;28.10;48.50;101651.44;6121261;28;20078;-67
2023/08/21 11:27:16;;;;;;;3.45;1.50;;;;;;;28.60;45.57;101651.72;6121436;28;20131;-67
2023/08/21 11:30:12;;;;;;;4.13;1.70;;;;;;;28.59;45.29;101643.78;6122216;28;20471;-66
2023/08/21 11:33:12;;;;;;;4.28;1.73;;;;;;;28.76;43.24;101661.91;6121148;28;20044;-67
2023/08/21 11:36:07;;;;;;;3.45;1.65;;;;;;;28.75;44.58;101670.34;6121323;28;20115;-67
2023/08/21 11:39:03;;;;;;;6.87;1.43;;;;;;;28.63;46.03;101644.97;6121120;28;20058;-67
2023/08/21 11:41:59;;;;;;;4.65;1.20;;;;;;;28.01;45.12;101655.59;6121287;28;20274;-68
2023/08/21 11:44:54;;;;;;;4.75;1.45;;;;;;;28.10;46.92;101650.66;6116551;28;20028;-67
2023/08/21 11:47:50;;;;;;;5.97;1.67;;;;;;;27.73;47.34;101644.56;6119723;28;20457;-68
2023/08/21 11:50:47;;;;;;;4.57;1.37;;;;;;;27.95;46.11;101669.34;6121016;28;20040;-67
2023/08/21 11:53:43;;;;;;;3.95;1.52;;;;;;;28.04;45.93;101660.59;6120366;28;20438;-67
2023/08/21 11:56:38;;;;;;;6.10;1.40;;;;;;;28.23;44.85;101640.31;6120876;28;20036;-68
2023/08/21 11:59:34;;;;;;;6.60;1.60;;;;;;;27.70;47.34;101643.13;6121151;28;20047;-67
2023/08/21 12:02:29;;;;;;;5.07;1.40;;;;;;;27.74;46.36;101648.94;6120495;28;20459;-66
2023/08/21 12:05:28;;;;;;;5.93;1.67;;;;;;;26.71;49.26;101659.25;6125108;28;20044;-67
2023/08/21 12:08:23;;;;;;;5.05;1.50;;;;;;;26.93;48.39;101644.09;6120812;28;20040;-66
2023/08/21 12:11:19;;;;;;;5.73;1.50;;;;;;;27.39;49.50;101639.88;6123361;28;20497;-67
2023/08/21 12:14:14;;;;;;;4.63;1.30;;;;;;;27.46;49.98;101654.22;6129233;28;20359;-67
2023/08/21 12:17:09;;;;;;;3.90;1.40;;;;;;;27.64;46.27;101641.34;6134981;28;20025;-67
2023/08/21 12:20:10;;;;;;;4.57;1.20;;;;;;;27.43;48.95;101643.81;6125087;28;20336;-67
2023/08/21 12:23:05;;;;;;;4.93;1.38;;;;;;;27.72;47.81;101659.28;6128343;28;20350;-67
2023/08/21 12:26:01;;;;;;;7.47;1.40;;;;;;;27.43;49.97;101641.06;6120590;28;20074;-67
2023/08/21 12:28:56;;;;;;;3.07;1.20;;;;;;;27.60;48.09;101659.25;6123426;28;20024;-67
2023/08/21 12:31:51;;;;;;;5.13;1.37;;;;;;;27.48;48.69;101638.47;6125478;28;20032;-68
2023/08/21 12:34:46;;;;;;;4.37;1.50;;;;;;;27.21;48.63;101643.47;6124924;28;20083;-67
2023/08/21 12:37:42;;;;;;;5.40;1.27;;;;;;;27.02;48.90;101625.53;6121529;28;20028;-67
2023/08/21 12:40:37;;;;;;;3.80;1.47;;;;;;;27.16;50.00;101633.28;6125249;28;20028;-67
2023/08/21 12:43:33;;;;;;;3.72;1.35;;;;;;;27.31;48.68;101634.75;6123908;28;20028;-67
2023/08/21 12:46:29;;;;;;;5.38;1.50;;;;;;;27.46;48.74;101632.44;6122390;28;20138;-68
2023/08/21 12:49:24;;;;;;;5.25;1.40;;;;;;;27.23;49.78;101635.09;6124520;28;20036;-67
2023/08/21 12:52:19;;;;;;;5.73;1.60;;;;;;;27.13;48.69;101631.03;6124411;28;20443;-67
2023/08/21 12:55:15;;;;;;;5.45;1.60;;;;;;;27.00;49.30;101633.97;6124227;28;20487;-67
2023/08/21 12:58:13;;;;;;;3.05;1.27;;;;;;;27.42;48.94;101642.16;6124820;28;20032;-67
2023/08/21 13:01:08;;;;;;;5.22;1.33;;;;;;;28.02;47.70;101623.69;6124837;28;20115;-67
2023/08/21 13:04:04;;;;;;;6.03;1.53;;;;;;;28.66;45.63;101614.44;6123138;28;20025;-67
2023/08/21 13:07:00;;;;;;;6.22;2.00;;;;;;;28.50;45.31;101635.13;6123678;28;20290;-67
2023/08/21 13:09:55;;;;;;;4.82;1.20;;;;;;;28.65;46.27;101626.44;6125030;28;20035;-67
2023/08/21 13:12:51;;;;;;;6.87;1.40;;;;;;;29.07;44.57;101630.53;6124717;28;20040;-67
2023/08/21 13:15:47;;;;;;;2.22;1.20;;;;;;;29.23;44.43;101618.00;6123703;28;20328;-67
2023/08/21 13:18:42;;;;;;;4.10;1.07;;;;;;;29.32;43.12;101619.25;6125040;28;20115;-67
2023/08/21 13:21:37;;;;;;;5.53;1.40;;;;;;;28.91;43.13;101620.41;6123608;28;20796;-67
2023/08/21 13:24:32;;;;;;;3.40;1.00;;;;;;;28.38;43.51;101603.47;6123767;28;20043;-67
2023/08/21 13:27:28;;;;;;;3.47;1.07;;;;;;;28.64;42.99;101608.41;6124162;28;20035;-65
2023/08/21 13:30:23;;;;;;;4.63;1.20;;;;;;;27.72;44.45;101616.44;6124661;28;20279;-67
2023/08/21 13:33:18;;;;;;;3.50;1.00;;;;;;;28.74;44.82;101616.78;6124044;28;20043;-68